createdAt,value
2022-08-18T00:02:05.670Z,96219.56
2022-08-18T00:04:45.356Z,96223.28
2022-08-18T00:07:22.253Z,96225.16
2022-08-18T00:09:49.898Z,96215.16
2022-08-18T00:12:18.773Z,96234.03
2022-08-18T00:14:49.627Z,96233.47
2022-08-18T00:17:19.035Z,96224.34
2022-08-18T00:19:48.327Z,96215.97
2022-08-18T00:22:17.972Z,96212.66
2022-08-18T00:24:48.276Z,96210.69
2022-08-18T00:27:17.741Z,96205.00
2022-08-18T00:29:46.861Z,96200.72
2022-08-18T00:32:17.624Z,96194.34
2022-08-18T00:34:46.755Z,96192.06
2022-08-18T00:37:14.376Z,96197.06
2022-08-18T00:39:46.200Z,96189.59
2022-08-18T00:42:27.777Z,96181.34
2022-08-18T00:44:59.191Z,96181.97
2022-08-18T00:47:41.788Z,96177.84
2022-08-18T00:50:16.155Z,96179.03
2022-08-18T00:52:46.337Z,96173.31
2022-08-18T00:55:14.310Z,96183.06
2022-08-18T00:57:42.932Z,96178.41
2022-08-18T01:00:12.780Z,96173.06
2022-08-18T01:02:41.883Z,96155.88
2022-08-18T01:05:23.360Z,96158.47
2022-08-18T01:07:52.850Z,96149.97
2022-08-18T01:10:22.243Z,96151.44
2022-08-18T01:12:51.005Z,96151.16
2022-08-18T01:15:28.981Z,96161.38
2022-08-18T01:18:15.902Z,96163.28
2022-08-18T01:21:16.963Z,96163.09
2022-08-18T01:23:46.495Z,96153.19
2022-08-18T01:26:13.211Z,96162.88
2022-08-18T01:28:41.916Z,96164.94
2022-08-18T01:31:09.894Z,96153.41
2022-08-18T01:33:38.763Z,96148.59
2022-08-18T01:36:13.145Z,96140.13
2022-08-18T01:38:41.042Z,96126.38
2022-08-18T01:41:28.464Z,96127.69
2022-08-18T01:44:00.931Z,96141.47
2022-08-18T01:46:32.539Z,96138.91
2022-08-18T01:49:01.465Z,96139.13
2022-08-18T01:51:40.448Z,96138.28
2022-08-18T01:54:09.761Z,96129.72
2022-08-18T01:56:40.913Z,96130.91
2022-08-18T01:59:10.417Z,96130.16
2022-08-18T02:01:43.356Z,96115.06
2022-08-18T02:04:35.080Z,96119.16
2022-08-18T02:07:04.355Z,96125.53
2022-08-18T02:09:32.486Z,96151.25
2022-08-18T02:12:04.091Z,96130.66
2022-08-18T02:14:32.750Z,96136.09
2022-08-18T02:17:01.509Z,96129.28
2022-08-18T02:19:33.505Z,96120.56
2022-08-18T02:22:01.239Z,96128.09
2022-08-18T02:24:29.156Z,96116.16
2022-08-18T02:26:56.868Z,96108.00
2022-08-18T02:29:28.670Z,96122.59
2022-08-18T02:31:56.772Z,96121.63
2022-08-18T02:34:26.278Z,96125.59
2022-08-18T02:37:10.845Z,96123.81
2022-08-18T02:39:44.413Z,96120.34
2022-08-18T02:42:14.793Z,96124.56
2022-08-18T02:44:45.468Z,96114.19
2022-08-18T02:47:13.199Z,96120.38
2022-08-18T02:49:43.582Z,96112.78
2022-08-18T02:52:11.180Z,96115.16
2022-08-18T02:54:38.931Z,96104.50
2022-08-18T02:57:08.138Z,96105.88
2022-08-18T02:59:38.464Z,95989.06
2022-08-18T03:02:09.539Z,96120.69
2022-08-18T03:04:38.136Z,96122.72
2022-08-18T03:07:07.059Z,96118.34
2022-08-18T03:09:35.458Z,96107.56
2022-08-18T03:12:03.604Z,96107.38
2022-08-18T03:14:32.126Z,96105.16
2022-08-18T03:17:00.073Z,96101.00
2022-08-18T03:19:30.594Z,96096.66
2022-08-18T03:22:02.485Z,96095.56
2022-08-18T03:24:32.529Z,96090.22
2022-08-18T03:27:01.840Z,96077.66
2022-08-18T03:29:32.649Z,96082.88
2022-08-18T03:32:00.984Z,96072.59
2022-08-18T03:34:32.661Z,96073.03
2022-08-18T03:37:01.017Z,96071.09
2022-08-18T03:39:29.343Z,96073.03
2022-08-18T03:42:01.099Z,96073.56
2022-08-18T03:44:33.776Z,96069.19
2022-08-18T03:47:03.145Z,96072.50
2022-08-18T03:49:33.855Z,96068.34
2022-08-18T03:52:01.990Z,96067.25
2022-08-18T03:54:32.159Z,96063.44
2022-08-18T03:57:00.302Z,96070.41
2022-08-18T03:59:28.055Z,96069.94
2022-08-18T04:01:56.609Z,96070.22
2022-08-18T04:04:25.206Z,96076.84
2022-08-18T04:06:55.314Z,96074.09
2022-08-18T04:09:29.544Z,96065.47
2022-08-18T04:11:57.559Z,96067.00
2022-08-18T04:14:29.602Z,96062.53
2022-08-18T04:16:58.569Z,96086.78
2022-08-18T04:19:27.832Z,96064.91
2022-08-18T04:21:57.767Z,96065.13
2022-08-18T04:24:26.495Z,96071.19
2022-08-18T04:26:56.386Z,96070.50
2022-08-18T04:29:25.968Z,96075.69
2022-08-18T04:31:54.959Z,96078.47
2022-08-18T04:34:25.753Z,96085.31
2022-08-18T04:36:54.993Z,96089.78
2022-08-18T04:39:25.771Z,96095.97
2022-08-18T04:41:53.715Z,96094.06
2022-08-18T04:44:21.847Z,96105.91
2022-08-18T04:46:51.230Z,96113.75
2022-08-18T04:49:22.298Z,96109.19
2022-08-18T04:52:34.401Z,96113.66
2022-08-18T04:55:02.064Z,96114.28
2022-08-18T04:57:34.002Z,96118.00
2022-08-18T05:00:02.961Z,95892.59
2022-08-18T05:02:33.205Z,96124.47
2022-08-18T05:05:03.167Z,96133.66
2022-08-18T05:07:33.937Z,96135.06
2022-08-18T05:10:03.975Z,96142.88
2022-08-18T05:12:31.976Z,96135.13
2022-08-18T05:15:02.867Z,96138.56
2022-08-18T05:17:33.212Z,96137.59
2022-08-18T05:20:04.014Z,96160.09
2022-08-18T05:22:32.179Z,96129.03
2022-08-18T05:25:00.389Z,96119.84
2022-08-18T05:27:35.597Z,96112.94
2022-08-18T05:30:03.486Z,96116.16
2022-08-18T05:32:47.034Z,96112.69
2022-08-18T05:35:18.443Z,96109.81
2022-08-18T05:37:48.200Z,96101.25
2022-08-18T05:40:16.122Z,96101.22
2022-08-18T05:42:45.898Z,96096.56
2022-08-18T05:45:14.414Z,96094.84
2022-08-18T05:47:42.400Z,96089.56
2022-08-18T05:50:11.623Z,96089.72
2022-08-18T05:52:40.123Z,96093.16
2022-08-18T05:55:26.932Z,96095.13
2022-08-18T05:57:56.962Z,96082.25
2022-08-18T06:00:31.360Z,96079.25
2022-08-18T06:03:00.189Z,96068.94
2022-08-18T06:05:29.470Z,96075.75
2022-08-18T06:07:59.157Z,96088.63
2022-08-18T06:10:27.094Z,96091.81
2022-08-18T06:13:00.704Z,96091.91
2022-08-18T06:15:30.920Z,96086.91
2022-08-18T06:18:17.443Z,96090.31
2022-08-18T06:20:50.889Z,96086.28
2022-08-18T06:23:21.381Z,96086.00
2022-08-18T06:25:55.567Z,96091.88
2022-08-18T06:28:25.169Z,96112.50
2022-08-18T06:30:55.360Z,96131.63
2022-08-18T06:33:32.007Z,96140.25
2022-08-18T06:36:02.766Z,96136.41
2022-08-18T06:38:39.890Z,96118.88
2022-08-18T06:41:40.793Z,96131.88
2022-08-18T06:44:02.324Z,96130.19
2022-08-18T06:46:33.301Z,96127.94
2022-08-18T06:49:03.952Z,96127.94
2022-08-18T06:51:32.077Z,96116.19
2022-08-18T06:54:00.993Z,96113.03
2022-08-18T06:56:30.484Z,96105.22
2022-08-18T06:59:07.432Z,96102.19
2022-08-18T07:01:37.231Z,96107.38
2022-08-18T07:04:05.337Z,96109.72
2022-08-18T07:06:33.298Z,96123.59
2022-08-18T07:09:28.197Z,96129.91
2022-08-18T07:12:00.355Z,96131.31
2022-08-18T07:14:30.056Z,96132.91
2022-08-18T07:17:08.487Z,96146.16
2022-08-18T07:19:36.490Z,96153.75
2022-08-18T07:22:05.089Z,96165.28
2022-08-18T07:24:33.200Z,96160.72
2022-08-18T07:27:01.844Z,96159.28
2022-08-18T07:29:31.482Z,96160.25
2022-08-18T07:31:59.666Z,96160.03
2022-08-18T07:34:28.688Z,96166.59
2022-08-18T07:36:59.911Z,96165.47
2022-08-18T07:39:29.434Z,96173.88
2022-08-18T07:41:59.015Z,96174.31
2022-08-18T07:44:28.961Z,96173.38
2022-08-18T07:47:02.007Z,96178.69
2022-08-18T07:49:35.564Z,96185.00
2022-08-18T07:52:04.961Z,96188.84
2022-08-18T07:54:55.076Z,96183.44
2022-08-18T07:57:25.700Z,96185.34
2022-08-18T07:59:56.048Z,96183.19
2022-08-18T08:02:32.903Z,96190.59
2022-08-18T08:05:04.184Z,96182.53
2022-08-18T08:07:39.614Z,96180.41
2022-08-18T08:10:16.062Z,96179.06
2022-08-18T08:12:44.604Z,96176.34
2022-08-18T08:15:17.778Z,96171.25
2022-08-18T08:17:50.695Z,96159.47
2022-08-18T08:20:21.292Z,96153.28
2022-08-18T08:22:54.339Z,96157.75
2022-08-18T08:25:45.191Z,96155.22
2022-08-18T08:28:14.834Z,96156.34
2022-08-18T08:30:46.177Z,96164.75
2022-08-18T08:33:18.652Z,96164.13
2022-08-18T08:35:50.671Z,96153.78
2022-08-18T08:38:39.897Z,96148.78
2022-08-18T08:41:10.538Z,96155.91
2022-08-18T08:43:41.730Z,96163.63
2022-08-18T08:46:11.929Z,96160.56
2022-08-18T08:48:42.999Z,96160.50
2022-08-18T08:51:15.823Z,96156.78
2022-08-18T08:53:46.085Z,96153.88
2022-08-18T08:56:16.319Z,96146.72
2022-08-18T08:58:45.618Z,96163.84
2022-08-18T09:01:15.069Z,96168.34
2022-08-18T09:03:47.033Z,96164.38
2022-08-18T09:06:18.717Z,96150.38
2022-08-18T09:08:55.627Z,96140.63
2022-08-18T09:11:26.867Z,96132.88
2022-08-18T09:14:19.075Z,96114.00
2022-08-18T09:16:51.209Z,96093.78
2022-08-18T09:19:29.659Z,96084.88
2022-08-18T09:22:02.250Z,96081.41
2022-08-18T09:24:30.945Z,96085.56
2022-08-18T09:27:14.850Z,96096.91
2022-08-18T09:29:50.395Z,96113.22
2022-08-18T09:32:36.835Z,96108.38
2022-08-18T09:35:23.206Z,96106.41
2022-08-18T09:38:13.598Z,96109.06
2022-08-18T09:41:05.969Z,96118.44
2022-08-18T09:46:41.218Z,96137.97
2022-08-18T09:49:26.766Z,96132.06
2022-08-18T09:50:38.120Z,96127.22
2022-08-18T09:51:57.180Z,96135.63
2022-08-18T09:54:25.596Z,96150.44
2022-08-18T09:57:08.079Z,95205.75
2022-08-18T09:59:54.407Z,96143.63
2022-08-18T10:02:41.913Z,96159.75
2022-08-18T10:05:28.552Z,96154.34
2022-08-18T10:08:21.426Z,96169.34
2022-08-18T10:11:02.341Z,96155.16
2022-08-18T10:13:39.048Z,96150.78
2022-08-18T10:16:10.865Z,96147.22
2022-08-18T10:18:44.435Z,96139.53
2022-08-18T10:21:20.979Z,95916.22
2022-08-18T10:24:14.618Z,96131.00
2022-08-18T10:27:11.149Z,96126.91
2022-08-18T10:29:54.428Z,96111.78
2022-08-18T10:32:27.010Z,96108.75
2022-08-18T10:35:01.382Z,96102.31
2022-08-18T10:37:31.347Z,96090.13
2022-08-18T10:40:02.267Z,96079.59
2022-08-18T10:45:24.678Z,96074.69
2022-08-18T10:47:59.818Z,96084.19
2022-08-18T10:50:28.121Z,96092.44
2022-08-18T10:53:24.313Z,96086.84
2022-08-18T10:55:51.569Z,96075.63
2022-08-18T10:58:28.720Z,96078.13
2022-08-18T11:01:03.166Z,96066.56
2022-08-18T11:03:52.245Z,96057.25
2022-08-18T11:06:25.192Z,95884.94
2022-08-18T11:08:55.203Z,96054.66
2022-08-18T11:11:38.041Z,96059.41
2022-08-18T11:14:12.687Z,96068.06
2022-08-18T11:16:44.141Z,96072.78
2022-08-18T11:19:12.953Z,96066.56
2022-08-18T11:21:43.626Z,96064.09
2022-08-18T11:24:16.088Z,96049.34
2022-08-18T11:26:52.801Z,96065.22
2022-08-18T11:29:32.900Z,96066.28
2022-08-18T11:32:03.853Z,96068.31
2022-08-18T11:34:35.799Z,96067.81
2022-08-18T11:37:09.203Z,96065.81
2022-08-18T11:39:44.253Z,96057.38
2022-08-18T11:42:21.817Z,96063.78
2022-08-18T11:44:54.890Z,96061.28
2022-08-18T11:47:27.813Z,96053.47
2022-08-18T11:50:08.469Z,96054.47
2022-08-18T11:52:47.318Z,96048.88
2022-08-18T11:55:24.568Z,96044.28
2022-08-18T11:57:58.607Z,96039.31
2022-08-18T12:00:42.963Z,96031.63
2022-08-18T12:03:15.556Z,96025.91
2022-08-18T12:05:53.929Z,96023.00
2022-08-18T12:08:54.491Z,96019.50
2022-08-18T12:11:27.025Z,96010.78
2022-08-18T12:16:50.263Z,96014.63
2022-08-18T12:19:25.524Z,96015.53
2022-08-18T12:21:55.424Z,96021.09
2022-08-18T12:24:26.059Z,96013.50
2022-08-18T12:26:54.353Z,96012.47
2022-08-18T12:29:30.930Z,96007.81
2022-08-18T12:32:08.599Z,96016.69
2022-08-18T12:34:48.203Z,96014.88
2022-08-18T12:37:54.419Z,96010.13
2022-08-18T12:40:06.250Z,96007.13
2022-08-18T12:42:36.826Z,96003.91
2022-08-18T12:45:07.434Z,96004.75
2022-08-18T12:47:39.926Z,96003.13
2022-08-18T12:50:12.795Z,95995.97
2022-08-18T12:52:45.457Z,95983.22
2022-08-18T12:58:09.195Z,95991.50
2022-08-18T13:00:41.262Z,95989.50
2022-08-18T13:03:09.760Z,95968.16
2022-08-18T13:05:38.086Z,95960.16
2022-08-18T13:08:06.448Z,95964.78
2022-08-18T13:10:46.672Z,95960.81
2022-08-18T13:13:15.484Z,95944.44
2022-08-18T13:15:58.068Z,95935.28
2022-08-18T13:18:29.212Z,95931.78
2022-08-18T13:21:07.452Z,95936.31
2022-08-18T13:23:37.585Z,95922.91
2022-08-18T13:26:09.482Z,95917.59
2022-08-18T13:28:57.215Z,95913.53
2022-08-18T13:31:29.275Z,95918.19
2022-08-18T13:34:03.702Z,95915.81
2022-08-18T13:36:47.981Z,95908.13
2022-08-18T13:39:16.502Z,95925.81
2022-08-18T13:41:45.683Z,95920.22
2022-08-18T13:44:18.731Z,95918.84
2022-08-18T13:46:52.250Z,95914.75
2022-08-18T13:49:23.552Z,95928.34
2022-08-18T13:52:00.775Z,95926.38
2022-08-18T13:54:31.641Z,95923.25
2022-08-18T13:57:02.865Z,95931.97
2022-08-18T13:59:33.133Z,95924.06
2022-08-18T14:02:08.341Z,95923.88
2022-08-18T14:04:38.767Z,95923.84
2022-08-18T14:07:10.451Z,95918.16
2022-08-18T14:09:41.405Z,95918.72
2022-08-18T14:12:16.028Z,95917.09
2022-08-18T14:14:51.876Z,95925.59
2022-08-18T14:17:22.645Z,95924.72
2022-08-18T14:20:04.880Z,95928.06
2022-08-18T14:22:58.429Z,95937.25
2022-08-18T14:25:43.767Z,95936.69
2022-08-18T14:28:12.002Z,95926.81
2022-08-18T14:30:44.245Z,95922.94
2022-08-18T14:33:22.420Z,95920.88
2022-08-18T14:36:05.993Z,95928.47
2022-08-18T14:38:35.369Z,95917.47
2022-08-18T14:41:04.648Z,95923.19
2022-08-18T14:44:11.323Z,95929.50
2022-08-18T14:48:55.907Z,95926.00
2022-08-18T14:51:27.034Z,95928.38
2022-08-18T14:53:55.789Z,95936.47
2022-08-18T14:56:24.354Z,95934.25
2022-08-18T14:58:58.054Z,95931.06
2022-08-18T15:01:26.679Z,95931.09
2022-08-18T15:03:56.262Z,95931.75
2022-08-18T15:06:27.384Z,95931.47
2022-08-18T15:08:57.114Z,95939.03
2022-08-18T15:11:27.436Z,95931.88
2022-08-18T15:14:01.562Z,95930.53
2022-08-18T15:16:34.023Z,95937.50
2022-08-18T15:19:59.689Z,95938.75
2022-08-18T15:22:15.886Z,95938.03
2022-08-18T15:25:01.168Z,95938.88
2022-08-18T15:27:42.437Z,95945.81
2022-08-18T15:30:13.453Z,95957.56
2022-08-18T15:32:49.629Z,95964.63
2022-08-18T15:35:19.880Z,95950.13
2022-08-18T15:37:51.199Z,95946.16
2022-08-18T15:40:21.765Z,95949.19
2022-08-18T15:43:01.575Z,95950.94
2022-08-18T15:45:35.283Z,95935.78
2022-08-18T15:48:03.740Z,95934.44
2022-08-18T15:50:33.242Z,95938.41
2022-08-18T15:53:07.894Z,95939.88
2022-08-18T15:55:37.474Z,95935.53
2022-08-18T15:58:11.023Z,95935.75
2022-08-18T16:00:42.282Z,95940.25
2022-08-18T16:03:14.398Z,95930.88
2022-08-18T16:05:47.631Z,95931.34
2022-08-18T16:08:18.522Z,95931.53
2022-08-18T16:10:46.637Z,95940.03
2022-08-18T16:13:14.772Z,95943.91
2022-08-18T16:15:46.860Z,95947.78
2022-08-18T16:18:15.460Z,95946.84
2022-08-18T16:20:44.964Z,95942.25
2022-08-18T16:23:13.490Z,95949.78
2022-08-18T16:25:42.237Z,95946.44
2022-08-18T16:28:10.252Z,95944.78
2022-08-18T16:30:38.015Z,95945.31
2022-08-18T16:33:06.830Z,95937.59
2022-08-18T16:35:37.515Z,95941.38
2022-08-18T16:38:11.018Z,95942.09
2022-08-18T16:40:40.391Z,95942.22
2022-08-18T16:43:08.965Z,95948.09
2022-08-18T16:45:37.656Z,95940.03
2022-08-18T16:48:08.142Z,95948.84
2022-08-18T16:50:38.458Z,95951.66
2022-08-18T16:53:07.593Z,95951.47
2022-08-18T16:55:35.459Z,95952.31
2022-08-18T16:58:20.763Z,95953.06
2022-08-18T17:01:05.659Z,95953.47
2022-08-18T17:03:50.644Z,95956.44
2022-08-18T17:06:18.787Z,95958.28
2022-08-18T17:08:51.254Z,95950.63
2022-08-18T17:11:20.245Z,95948.16
2022-08-18T17:13:48.486Z,95942.72
2022-08-18T17:16:16.621Z,95947.25
2022-08-18T17:18:44.423Z,95943.31
2022-08-18T17:21:15.864Z,95948.56
2022-08-18T17:23:48.241Z,95952.47
2022-08-18T17:26:19.214Z,95946.69
2022-08-18T17:28:50.453Z,95940.81
2022-08-18T17:31:20.758Z,95941.03
2022-08-18T17:33:49.717Z,95933.31
2022-08-18T17:36:21.470Z,95951.56
2022-08-18T17:38:50.475Z,95951.06
2022-08-18T17:41:23.490Z,95947.31
2022-08-18T17:43:52.292Z,95947.84
2022-08-18T17:46:27.465Z,95948.88
2022-08-18T17:48:56.810Z,95952.16
2022-08-18T17:51:33.829Z,95953.34
2022-08-18T17:54:03.248Z,95956.44
2022-08-18T17:56:40.395Z,95960.72
2022-08-18T17:59:45.479Z,95961.22
2022-08-18T18:02:28.495Z,95960.97
2022-08-18T18:04:56.762Z,95951.50
2022-08-18T18:07:26.200Z,95960.09
2022-08-18T18:09:56.614Z,95960.50
2022-08-18T18:12:29.054Z,95957.56
2022-08-18T18:14:57.431Z,95967.47
2022-08-18T18:17:26.253Z,95966.69
2022-08-18T18:19:56.585Z,95970.88
2022-08-18T18:22:25.560Z,95967.28
2022-08-18T18:24:54.034Z,95973.09
2022-08-18T18:27:29.157Z,95967.84
2022-08-18T18:29:59.754Z,95972.38
2022-08-18T18:32:29.534Z,95976.13
2022-08-18T18:35:18.206Z,95972.38
2022-08-18T18:37:47.678Z,95972.53
2022-08-18T18:40:24.357Z,95979.13
2022-08-18T18:42:54.049Z,95976.28
2022-08-18T18:45:34.591Z,95983.19
2022-08-18T18:48:08.449Z,95985.41
2022-08-18T18:51:01.998Z,95991.88
2022-08-18T18:53:57.153Z,95986.19
2022-08-18T18:56:25.584Z,95996.38
2022-08-18T18:58:58.369Z,95993.06
2022-08-18T19:01:31.692Z,95988.53
2022-08-18T19:04:01.387Z,95993.41
2022-08-18T19:06:29.868Z,95992.47
2022-08-18T19:09:01.012Z,95993.13
2022-08-18T19:11:30.900Z,95992.00
2022-08-18T19:14:03.161Z,96000.91
2022-08-18T19:16:43.685Z,95990.22
2022-08-18T19:19:36.193Z,95993.50
2022-08-18T19:22:06.433Z,95997.22
2022-08-18T19:24:41.342Z,96005.16
2022-08-18T19:27:11.601Z,95999.91
2022-08-18T19:29:43.120Z,96003.19
2022-08-18T19:32:16.423Z,95997.34
2022-08-18T19:34:52.653Z,96004.13
2022-08-18T19:37:30.895Z,95999.94
2022-08-18T19:40:02.868Z,95995.03
2022-08-18T19:42:35.117Z,95994.00
2022-08-18T19:45:17.274Z,96006.47
2022-08-18T19:47:47.832Z,96005.06
2022-08-18T19:50:18.543Z,96005.69
2022-08-18T19:52:57.420Z,96006.81
2022-08-18T19:55:31.420Z,96027.09
2022-08-18T19:58:07.755Z,96016.13
2022-08-18T20:00:41.146Z,96024.34
2022-08-18T20:03:31.565Z,96022.19
2022-08-18T20:06:17.821Z,96029.13
2022-08-18T20:09:13.357Z,96021.78
2022-08-18T20:11:49.028Z,96022.56
2022-08-18T20:14:18.934Z,96030.25
2022-08-18T20:17:04.177Z,96027.78
2022-08-18T20:19:52.982Z,96031.59
2022-08-18T20:22:35.258Z,96036.31
2022-08-18T20:25:07.237Z,96036.19
2022-08-18T20:27:41.836Z,96040.22
2022-08-18T20:30:34.088Z,96045.09
2022-08-18T20:33:12.004Z,96044.25
2022-08-18T20:35:40.958Z,96051.22
2022-08-18T20:38:16.764Z,96048.22
2022-08-18T20:40:45.826Z,96053.72
2022-08-18T20:43:40.628Z,96042.16
2022-08-18T20:46:16.672Z,96029.91
2022-08-18T20:48:52.476Z,96031.16
2022-08-18T20:51:23.009Z,96028.34
2022-08-18T20:54:07.091Z,96039.34
2022-08-18T20:56:45.209Z,96029.69
2022-08-18T20:59:16.577Z,96026.22
2022-08-18T21:01:57.948Z,96027.69
2022-08-18T21:04:41.236Z,96034.72
2022-08-18T21:07:18.564Z,96038.22
2022-08-18T21:10:12.516Z,96039.34
2022-08-18T21:12:57.221Z,96047.06
2022-08-18T21:15:27.739Z,96038.88
2022-08-18T21:18:02.811Z,96042.72
2022-08-18T21:20:31.525Z,96047.53
2022-08-18T21:23:06.587Z,96048.94
2022-08-18T21:25:34.558Z,96055.50
2022-08-18T21:28:04.105Z,96053.47
2022-08-18T21:30:32.383Z,96062.88
2022-08-18T21:33:20.250Z,96054.22
2022-08-18T21:35:51.861Z,96052.56
2022-08-18T21:38:25.549Z,96064.25
2022-08-18T21:41:00.011Z,96071.41
2022-08-18T21:43:39.320Z,96050.00
2022-08-18T21:46:09.852Z,96051.88
2022-08-18T21:48:42.085Z,96058.41
2022-08-18T21:51:11.286Z,96062.00
2022-08-18T21:53:42.146Z,96064.69
2022-08-18T21:56:20.955Z,96076.00
2022-08-18T21:58:50.970Z,96085.44
2022-08-18T22:01:23.861Z,96094.38
2022-08-18T22:03:53.590Z,96091.03
2022-08-18T22:06:28.775Z,96087.31
2022-08-18T22:08:58.213Z,96083.53
2022-08-18T22:12:01.197Z,96080.81
2022-08-18T22:14:54.028Z,96088.84
2022-08-18T22:17:34.523Z,96082.19
2022-08-18T22:20:21.907Z,96079.69
2022-08-18T22:23:03.453Z,96081.88
2022-08-18T22:25:33.568Z,96080.84
2022-08-18T22:28:03.725Z,96085.09
2022-08-18T22:30:35.437Z,96076.78
2022-08-18T22:33:03.264Z,96068.94
2022-08-18T22:35:35.337Z,96073.00
2022-08-18T22:38:04.026Z,96075.22
2022-08-18T22:40:31.855Z,96070.50
2022-08-18T22:43:03.266Z,96075.53
2022-08-18T22:45:32.442Z,96066.03
2022-08-18T22:48:00.782Z,96074.84
2022-08-18T22:50:31.551Z,96079.00
2022-08-18T22:52:59.254Z,96081.94
2022-08-18T22:55:27.179Z,96086.00
2022-08-18T22:57:57.102Z,96096.41
2022-08-18T23:00:25.359Z,96091.53
2022-08-18T23:02:58.333Z,96089.47
2022-08-18T23:05:26.248Z,96085.94
2022-08-18T23:07:54.175Z,96089.06
2022-08-18T23:10:22.413Z,96093.81
2022-08-18T23:12:50.408Z,96094.56
2022-08-18T23:15:18.705Z,96081.94
2022-08-18T23:17:46.468Z,96084.00
2022-08-18T23:20:19.938Z,96088.16
2022-08-18T23:22:48.533Z,96084.44
2022-08-18T23:25:17.194Z,96088.81
2022-08-18T23:27:44.833Z,96090.84
2022-08-18T23:30:12.649Z,96093.53
2022-08-18T23:32:40.414Z,96097.09
2022-08-18T23:35:08.250Z,96095.66
2022-08-18T23:37:37.894Z,96098.94
2022-08-18T23:40:06.628Z,96093.22
2022-08-18T23:42:34.832Z,96088.88
2022-08-18T23:45:04.136Z,96085.81
2022-08-18T23:47:32.333Z,96086.19
2022-08-18T23:50:00.220Z,96087.44
2022-08-18T23:52:28.190Z,96090.38
2022-08-18T23:54:57.728Z,96086.91
2022-08-18T23:57:25.459Z,96090.69
2022-08-18T23:59:53.149Z,96092.06
